Time;durP1;ratioP1;P1;durP2;ratioP2;P2;SDS_P1;SDS_P2;PMS_P1;PMS_P2;Temp;Humidity;BMP_temperature;BMP_pressure;BME280_temperature;BME280_humidity;BME280_pressure;Samples;Min_cycle;Max_cycle;Signal;HPM_P1;HPM_P2
2022/03/28 00:00:34;;;;;;;10.43;6.50;;;;;;;10.39;39.70;102522.78;2569610;23;20152;-68
2022/03/28 00:01:35;;;;;;;10.67;7.17;;;;;;;10.49;39.81;102544.22;2568883;23;20153;-68
2022/03/28 00:02:55;;;;;;;10.40;6.23;;;;;;;10.80;40.11;102582.47;2569133;23;20208;-68
2022/03/28 00:03:55;;;;;;;10.77;6.50;;;;;;;10.80;40.26;102587.19;2569160;23;20516;-68
2022/03/28 00:04:56;;;;;;;9.90;6.93;;;;;;;10.79;40.20;102593.94;2569460;23;20152;-68
2022/03/28 00:05:56;;;;;;;10.33;6.90;;;;;;;10.24;40.12;102510.00;2569738;23;20595;-68
2022/03/28 00:06:57;;;;;;;10.90;6.90;;;;;;;10.70;40.23;102574.06;2569458;23;20555;-68
2022/03/28 00:07:57;;;;;;;11.93;6.77;;;;;;;10.85;40.22;102598.75;2569693;23;20612;-68
2022/03/28 00:08:58;;;;;;;8.37;6.43;;;;;;;9.78;40.42;102436.00;2569481;23;20504;-68
2022/03/28 00:09:59;;;;;;;12.47;6.60;;;;;;;10.86;40.13;102594.78;2569644;23;20148;-68
2022/03/28 00:10:59;;;;;;;12.00;6.43;;;;;;;10.84;40.19;102599.94;2569508;23;20229;-68
2022/03/28 00:12:00;;;;;;;9.43;6.03;;;;;;;10.43;39.89;102526.38;2569373;23;20500;-68
2022/03/28 00:13:00;;;;;;;9.77;6.83;;;;;;;10.85;39.97;102590.41;2569388;23;20149;-68
2022/03/28 00:14:01;;;;;;;12.43;7.07;;;;;;;9.88;40.45;102446.34;2569215;23;20163;-68
2022/03/28 00:15:02;;;;;;;14.53;6.67;;;;;;;10.83;40.14;102606.66;2569508;23;20154;-68
2022/03/28 00:16:04;;;;;;;9.75;5.75;;;;;;;10.85;41.62;102600.69;2569748;23;20159;-68
2022/03/28 00:17:05;;;;;;;11.48;6.40;;;;;;;10.74;41.33;102581.25;2556135;23;20598;-68
2022/03/28 00:18:08;;;;;;;18.17;6.77;;;;;;;10.61;40.38;102573.63;2556632;23;20505;-68
2022/03/28 00:19:09;;;;;;;37.53;9.02;;;;;;;10.70;40.86;102590.69;2569549;23;20157;-68
2022/03/28 00:20:11;;;;;;;31.80;8.97;;;;;;;10.17;41.17;102509.94;2569594;23;20170;-68
2022/03/28 00:21:11;;;;;;;26.50;8.45;;;;;;;10.69;41.11;102600.19;2569517;23;20152;-68
2022/03/28 00:22:12;;;;;;;23.07;7.87;;;;;;;10.09;41.04;102515.81;2568805;23;20156;-68
2022/03/28 00:23:13;;;;;;;15.20;6.90;;;;;;;10.54;40.81;102593.78;2569619;23;20177;-68
2022/03/28 00:24:13;;;;;;;10.63;6.45;;;;;;;10.58;40.68;102605.69;2569010;23;20157;-68
2022/03/28 00:25:14;;;;;;;14.70;6.67;;;;;;;10.47;40.85;102587.38;2569454;23;20624;-68
2022/03/28 00:26:14;;;;;;;11.77;6.70;;;;;;;9.93;41.01;102516.03;2569961;23;20182;-68
2022/03/28 00:27:17;;;;;;;12.37;7.07;;;;;;;7.88;41.32;102194.69;2569505;23;20149;-68
2022/03/28 00:28:19;;;;;;;14.63;7.38;;;;;;;9.23;41.67;102424.03;2569576;23;20155;-68
2022/03/28 00:29:19;;;;;;;11.23;6.80;;;;;;;10.23;41.31;102580.47;2569682;23;20231;-68
2022/03/28 00:30:20;;;;;;;10.30;6.93;;;;;;;10.27;41.36;102597.09;2569582;23;20146;-68
2022/03/28 00:31:20;;;;;;;12.87;7.13;;;;;;;10.26;41.60;102601.84;2569581;23;20156;-68
2022/03/28 00:32:21;;;;;;;14.43;7.87;;;;;;;9.66;41.74;102516.56;2569236;23;20602;-68
2022/03/28 00:33:21;;;;;;;16.17;9.00;;;;;;;9.35;41.85;102500.44;2569668;23;20150;-68
2022/03/28 00:34:23;;;;;;;16.20;8.97;;;;;;;8.88;42.04;102437.50;2568846;23;20152;-68
2022/03/28 00:35:24;;;;;;;18.77;8.73;;;;;;;9.88;42.33;102609.75;2569780;23;20148;-68
2022/03/28 00:36:25;;;;;;;15.05;8.10;;;;;;;9.77;42.67;102604.13;2569484;23;20172;-68
2022/03/28 00:37:26;;;;;;;18.80;9.80;;;;;;;9.02;42.66;102498.47;2569594;23;20156;-68
2022/03/28 00:38:27;;;;;;;15.30;9.68;;;;;;;9.66;43.07;102602.41;2569728;23;20164;-68
2022/03/28 00:39:28;;;;;;;14.40;8.90;;;;;;;9.47;43.06;102592.28;2570454;23;20155;-68
2022/03/28 00:40:31;;;;;;;13.43;9.20;;;;;;;9.49;43.29;102605.75;2557101;23;20388;-68
2022/03/28 00:41:32;;;;;;;19.00;9.88;;;;;;;9.43;43.17;102607.28;2557784;23;20149;-68
2022/03/28 00:42:32;;;;;;;13.80;8.80;;;;;;;9.32;43.61;102596.06;2570069;23;20151;-68
2022/03/28 00:43:33;;;;;;;16.10;9.13;;;;;;;8.80;43.06;102521.50;2569734;23;20291;-68
2022/03/28 00:44:34;;;;;;;13.90;8.13;;;;;;;8.89;43.36;102535.03;2570269;23;20168;-68
2022/03/28 00:45:37;;;;;;;15.23;8.13;;;;;;;9.18;43.80;102593.09;2570339;23;20500;-68
2022/03/28 00:46:37;;;;;;;13.98;8.80;;;;;;;9.27;43.70;102610.22;2570186;23;20195;-68
2022/03/28 00:47:38;;;;;;;11.10;7.83;;;;;;;8.69;44.12;102537.16;2569197;23;20153;-68
2022/03/28 00:48:42;;;;;;;11.57;7.73;;;;;;;9.12;43.41;102602.13;2570450;23;20532;-68
2022/03/28 00:49:42;;;;;;;10.88;7.47;;;;;;;8.94;43.52;102565.94;2570432;23;20154;-68
2022/03/28 00:50:43;;;;;;;11.37;7.90;;;;;;;8.14;43.71;102477.06;2570420;23;20159;-68
2022/03/28 00:51:44;;;;;;;12.13;7.43;;;;;;;9.17;43.65;102602.59;2570327;23;20166;-68
2022/03/28 00:52:44;;;;;;;13.77;7.90;;;;;;;8.46;43.41;102486.66;2556457;23;20161;-68
2022/03/28 00:53:46;;;;;;;10.63;7.13;;;;;;;8.20;42.98;102444.47;2556666;23;20160;-68
2022/03/28 00:54:46;;;;;;;10.43;6.90;;;;;;;8.58;42.97;102516.03;2570461;23;20275;-68
2022/03/28 00:55:47;;;;;;;10.70;7.13;;;;;;;8.44;43.40;102519.41;2570516;23;20616;-68
2022/03/28 00:56:48;;;;;;;12.37;7.43;;;;;;;9.04;43.94;102617.84;2570118;23;20145;-68
2022/03/28 00:57:49;;;;;;;11.82;7.50;;;;;;;9.00;44.11;102618.94;2570418;23;20155;-68
2022/03/28 00:58:49;;;;;;;11.83;8.03;;;;;;;8.94;43.31;102599.13;2570106;23;20149;-68
2022/03/28 00:59:50;;;;;;;10.20;7.70;;;;;;;8.30;43.66;102501.84;2570600;23;20148;-68
2022/03/28 01:00:51;;;;;;;14.37;7.77;;;;;;;9.09;43.50;102623.03;2556896;23;20251;-68
2022/03/28 01:01:51;;;;;;;10.50;7.07;;;;;;;9.07;43.70;102616.28;2556807;23;20150;-68
2022/03/28 01:02:52;;;;;;;14.87;7.93;;;;;;;9.07;43.35;102619.06;2570161;23;20153;-68
2022/03/28 01:03:52;;;;;;;9.70;6.30;;;;;;;9.15;42.75;102616.00;2570047;23;20148;-68
2022/03/28 01:04:53;;;;;;;9.50;6.33;;;;;;;8.65;42.53;102547.34;2570098;23;20160;-68
2022/03/28 01:05:53;;;;;;;8.37;6.40;;;;;;;9.13;42.26;102612.81;2570613;23;20152;-68
2022/03/28 01:06:54;;;;;;;8.40;5.67;;;;;;;9.10;42.33;102627.41;2570048;23;20190;-68
2022/03/28 01:07:56;;;;;;;8.40;6.10;;;;;;;8.24;42.47;102500.53;2570349;23;20500;-67
2022/03/28 01:08:56;;;;;;;10.95;6.30;;;;;;;8.92;42.16;102601.44;2570234;23;20152;-68
2022/03/28 01:10:00;;;;;;;10.20;6.67;;;;;;;8.93;42.14;102602.25;2570326;23;20236;-68
2022/03/28 01:11:04;;;;;;;10.27;6.82;;;;;;;8.98;42.58;102619.31;2570046;23;20153;-68
2022/03/28 01:12:06;;;;;;;10.43;6.57;;;;;;;9.02;42.51;102624.91;2569998;23;20160;-68
2022/03/28 01:13:07;;;;;;;9.10;6.10;;;;;;;9.02;41.84;102619.38;2570141;23;20156;-68
2022/03/28 01:14:07;;;;;;;8.10;6.22;;;;;;;8.45;41.76;102542.31;2569728;23;20159;-68
2022/03/28 01:15:10;;;;;;;9.63;6.00;;;;;;;9.03;41.29;102630.03;2570354;23;20149;-68
2022/03/28 01:16:11;;;;;;;12.25;6.97;;;;;;;8.98;41.61;102627.59;2570274;23;20642;-68
2022/03/28 01:18:31;;;;;;;11.82;6.75;;;;;;;8.95;41.32;102633.09;2570242;23;20141;-68
2022/03/28 01:19:31;;;;;;;9.77;6.43;;;;;;;8.93;42.06;102627.94;2556996;23;20154;-68
2022/03/28 01:20:35;;;;;;;10.23;6.67;;;;;;;8.87;41.68;102632.19;2556976;23;20149;-68
2022/03/28 01:21:35;;;;;;;10.82;6.15;;;;;;;8.81;41.81;102625.38;2570176;23;20509;-68
2022/03/28 01:22:37;;;;;;;10.07;5.77;;;;;;;8.73;42.00;102634.75;2569445;23;20175;-68
2022/03/28 01:23:38;;;;;;;9.75;6.28;;;;;;;8.67;42.06;102636.22;2569690;23;20167;-68
2022/03/28 01:24:39;;;;;;;9.00;6.20;;;;;;;8.61;42.47;102628.63;2556774;23;20388;-68
2022/03/28 01:25:44;;;;;;;9.55;6.20;;;;;;;8.48;42.48;102632.75;2557140;23;20161;-69
2022/03/28 01:26:46;;;;;;;10.07;6.40;;;;;;;8.46;42.39;102657.19;2556803;23;20192;-69
2022/03/28 01:27:47;;;;;;;8.07;6.13;;;;;;;7.91;42.45;102556.38;2557153;23;20149;-68
2022/03/28 01:28:48;;;;;;;9.23;6.30;;;;;;;7.71;42.73;102516.19;2570079;23;20157;-69
2022/03/28 01:29:50;;;;;;;8.70;6.00;;;;;;;8.41;42.63;102629.88;2570479;23;20626;-69
2022/03/28 01:30:52;;;;;;;8.98;6.38;;;;;;;8.41;42.48;102641.72;2570008;23;20152;-68
2022/03/28 01:31:53;;;;;;;8.60;5.85;;;;;;;8.47;42.71;102643.03;2569847;23;20155;-69
2022/03/28 01:32:54;;;;;;;10.93;6.17;;;;;;;7.82;42.75;102532.94;2570050;23;20617;-69
2022/03/28 01:33:54;;;;;;;10.75;6.32;;;;;;;7.72;42.78;102523.31;2569874;23;20238;-69
2022/03/28 01:34:55;;;;;;;10.43;6.23;;;;;;;8.20;43.03;102596.38;2569970;23;20598;-68
2022/03/28 01:35:55;;;;;;;12.47;7.00;;;;;;;7.87;42.77;102533.44;2570426;23;20156;-69
2022/03/28 01:36:56;;;;;;;12.60;7.00;;;;;;;8.29;42.85;102619.81;2570107;23;20223;-68
2022/03/28 01:37:57;;;;;;;10.53;6.23;;;;;;;7.84;42.97;102547.97;2570327;23;20153;-68
2022/03/28 01:38:58;;;;;;;16.23;7.15;;;;;;;8.13;43.15;102602.53;2570020;23;20498;-69
2022/03/28 01:39:59;;;;;;;14.03;6.73;;;;;;;8.09;43.28;102620.22;2570270;23;20236;-68
2022/03/28 01:40:59;;;;;;;10.50;6.50;;;;;;;8.32;43.21;102645.91;2570120;23;20152;-69
2022/03/28 01:42:00;;;;;;;7.97;5.73;;;;;;;7.33;43.13;102504.44;2569810;23;20156;-69
2022/03/28 01:43:00;;;;;;;9.13;6.77;;;;;;;8.17;43.30;102644.00;2570077;23;20154;-69
2022/03/28 01:44:01;;;;;;;10.30;6.40;;;;;;;7.88;43.14;102576.44;2569517;23;20219;-68
2022/03/28 01:45:02;;;;;;;11.07;6.43;;;;;;;8.33;43.02;102642.78;2569892;23;20179;-69
2022/03/28 01:46:02;;;;;;;10.40;6.57;;;;;;;7.49;43.41;102525.25;2570189;23;20434;-68
2022/03/28 01:47:03;;;;;;;10.40;6.27;;;;;;;7.82;43.38;102618.50;2569944;23;20152;-69
2022/03/28 01:48:04;;;;;;;12.13;7.03;;;;;;;8.14;43.65;102664.06;2570176;23;20204;-69
2022/03/28 01:49:05;;;;;;;9.95;6.82;;;;;;;7.86;43.58;102597.28;2569924;23;20155;-68
2022/03/28 01:50:06;;;;;;;10.30;6.57;;;;;;;7.76;43.89;102582.13;2556749;23;20244;-68
2022/03/28 01:51:06;;;;;;;8.63;6.35;;;;;;;6.91;43.61;102442.94;2556907;23;20536;-69
2022/03/28 01:52:07;;;;;;;12.80;6.50;;;;;;;8.19;43.92;102652.72;2569803;23;20156;-69
2022/03/28 01:53:08;;;;;;;13.07;7.17;;;;;;;7.23;43.79;102491.25;2556470;23;20172;-69
2022/03/28 01:54:08;;;;;;;22.17;8.10;;;;;;;8.18;44.18;102651.13;2556570;23;20155;-68
2022/03/28 01:55:10;;;;;;;12.77;7.07;;;;;;;7.85;43.62;102603.97;2570148;23;20614;-69
2022/03/28 01:56:10;;;;;;;15.20;7.82;;;;;;;8.18;44.23;102649.19;2570069;23;20587;-69
2022/03/28 01:57:11;;;;;;;13.93;7.57;;;;;;;8.19;44.45;102645.25;2570039;23;20496;-69
2022/03/28 01:58:11;;;;;;;10.43;6.40;;;;;;;7.61;44.24;102572.00;2569617;23;20606;-69
2022/03/28 01:59:12;;;;;;;12.13;7.10;;;;;;;8.15;44.42;102651.88;2570036;23;20153;-69
2022/03/28 02:00:19;;;;;;;11.50;6.70;;;;;;;8.10;44.53;102649.41;2570192;23;20173;-69
2022/03/28 02:01:19;;;;;;;12.43;6.60;;;;;;;8.08;44.98;102648.97;2570071;23;20208;-68
2022/03/28 02:02:20;;;;;;;11.43;7.13;;;;;;;8.08;45.13;102652.53;2569973;23;20145;-69
2022/03/28 02:03:20;;;;;;;15.60;7.50;;;;;;;7.54;44.59;102557.25;2570062;23;20492;-69
2022/03/28 02:04:21;;;;;;;18.93;8.30;;;;;;;8.05;44.56;102647.75;2556307;23;20156;-68
2022/03/28 02:05:22;;;;;;;16.03;7.87;;;;;;;7.84;44.65;102619.75;2556880;23;20229;-68
2022/03/28 02:06:24;;;;;;;17.77;7.85;;;;;;;6.75;45.09;102459.56;2569964;23;20177;-68
2022/03/28 02:07:25;;;;;;;17.27;8.27;;;;;;;7.94;45.13;102649.50;2570023;23;20149;-69
2022/03/28 02:08:25;;;;;;;12.80;7.72;;;;;;;7.86;44.68;102634.00;2569911;23;20144;-69
2022/03/28 02:09:26;;;;;;;25.67;9.57;;;;;;;7.93;45.01;102647.91;2570152;23;20180;-69
2022/03/28 02:10:27;;;;;;;51.30;11.53;;;;;;;7.01;44.81;102520.34;2569853;23;20149;-69
2022/03/28 02:11:29;;;;;;;56.43;13.03;;;;;;;7.62;44.87;102611.41;2570128;23;20153;-69
2022/03/28 02:12:29;;;;;;;26.33;9.68;;;;;;;7.33;44.62;102565.13;2569563;23;20445;-69
2022/03/28 02:13:30;;;;;;;22.67;9.50;;;;;;;7.87;45.70;102654.91;2556273;23;20336;-68
2022/03/28 02:14:30;;;;;;;17.83;9.23;;;;;;;7.68;45.16;102615.50;2556723;23;20180;-69
2022/03/28 02:15:31;;;;;;;12.30;9.23;;;;;;;7.71;45.38;102623.84;2570020;23;20150;-68
2022/03/28 02:16:31;;;;;;;14.37;8.20;;;;;;;7.92;45.69;102654.59;2569824;23;20140;-68
2022/03/28 02:17:36;;;;;;;16.13;8.00;;;;;;;7.84;45.80;102655.63;2569906;23;20152;-69
2022/03/28 02:18:38;;;;;;;12.05;8.60;;;;;;;7.02;45.60;102524.69;2570036;23;20493;-69
2022/03/28 02:19:38;;;;;;;11.77;7.38;;;;;;;7.83;45.66;102667.84;2570059;23;20354;-69
2022/03/28 02:20:40;;;;;;;14.37;8.17;;;;;;;7.79;45.33;102657.91;2569993;23;20223;-69
2022/03/28 02:21:41;;;;;;;12.52;7.95;;;;;;;7.03;45.58;102559.38;2569970;23;20152;-69
2022/03/28 02:22:43;;;;;;;14.23;8.13;;;;;;;7.18;45.56;102550.22;2569332;23;20160;-69
2022/03/28 02:23:43;;;;;;;12.90;8.57;;;;;;;7.82;46.44;102660.72;2555905;23;20686;-69
2022/03/28 02:24:44;;;;;;;13.83;8.43;;;;;;;7.40;45.96;102584.56;2556675;23;20522;-69
2022/03/28 02:25:44;;;;;;;14.63;8.57;;;;;;;7.84;46.43;102660.38;2570443;23;20157;-69
2022/03/28 02:26:45;;;;;;;13.23;8.33;;;;;;;7.76;46.11;102651.16;2569914;23;20619;-68
2022/03/28 02:27:46;;;;;;;13.63;8.30;;;;;;;7.65;46.66;102652.91;2570002;23;20156;-69
2022/03/28 02:28:47;;;;;;;14.00;8.70;;;;;;;7.42;46.33;102601.53;2556470;23;20212;-69
2022/03/28 02:29:48;;;;;;;14.55;8.73;;;;;;;7.81;46.26;102670.16;2557010;23;20235;-69
2022/03/28 02:30:49;;;;;;;14.20;7.80;;;;;;;7.73;46.47;102656.56;2569871;23;20155;-68
2022/03/28 02:31:49;;;;;;;14.73;8.10;;;;;;;7.82;45.94;102663.47;2569658;23;20213;-68
2022/03/28 02:32:50;;;;;;;13.33;7.63;;;;;;;7.84;45.35;102665.88;2569896;23;20657;-69
2022/03/28 02:33:50;;;;;;;19.90;8.33;;;;;;;7.81;45.17;102655.56;2569603;23;20205;-69
2022/03/28 02:34:51;;;;;;;15.93;7.63;;;;;;;7.86;45.83;102667.13;2556463;23;20514;-69
2022/03/28 02:35:51;;;;;;;17.87;6.80;;;;;;;7.85;44.93;102668.25;2556990;23;20233;-69
2022/03/28 02:36:52;;;;;;;13.83;6.70;;;;;;;7.83;45.06;102672.53;2569738;23;20172;-69
2022/03/28 02:37:52;;;;;;;13.27;7.47;;;;;;;6.71;44.96;102490.97;2570108;23;20228;-69
2022/03/28 02:38:53;;;;;;;12.17;6.97;;;;;;;7.66;45.04;102657.25;2569762;23;20149;-69
2022/03/28 02:39:53;;;;;;;14.10;7.27;;;;;;;7.49;45.76;102623.78;2570168;23;20155;-68
2022/03/28 02:40:54;;;;;;;14.87;7.70;;;;;;;7.05;45.46;102564.53;2569684;23;20239;-69
2022/03/28 02:41:55;;;;;;;17.73;8.20;;;;;;;7.64;45.43;102691.88;2569706;23;20152;-68
2022/03/28 02:42:57;;;;;;;14.47;8.37;;;;;;;7.56;45.86;102662.53;2556465;23;20608;-69
2022/03/28 02:43:58;;;;;;;16.98;8.50;;;;;;;7.47;46.44;102662.75;2556436;23;20201;-69
2022/03/28 02:44:59;;;;;;;19.73;8.10;;;;;;;7.45;47.20;102661.53;2569484;23;20157;-68
2022/03/28 02:45:59;;;;;;;13.27;8.60;;;;;;;6.89;46.50;102578.38;2569919;23;20475;-69
2022/03/28 02:47:00;;;;;;;11.43;7.63;;;;;;;7.39;46.60;102663.75;2569707;23;20166;-69
2022/03/28 02:48:01;;;;;;;17.27;7.53;;;;;;;7.35;46.80;102665.66;2569904;23;20171;-69
2022/03/28 02:49:03;;;;;;;13.77;8.65;;;;;;;7.30;47.05;102663.19;2569804;23;20617;-69
2022/03/28 02:50:04;;;;;;;16.42;8.38;;;;;;;6.36;46.96;102539.75;2570035;23;20152;-69
2022/03/28 02:51:05;;;;;;;15.45;8.43;;;;;;;7.01;46.90;102660.94;2569770;23;20519;-69
2022/03/28 02:52:06;;;;;;;13.00;7.77;;;;;;;7.11;47.10;102673.38;2569604;23;20175;-68
2022/03/28 02:53:07;;;;;;;13.25;7.95;;;;;;;7.10;46.92;102671.78;2569746;23;20653;-69
2022/03/28 02:54:07;;;;;;;15.07;8.07;;;;;;;6.84;47.59;102628.28;2569169;23;20570;-69
2022/03/28 02:55:08;;;;;;;13.93;7.70;;;;;;;7.13;47.45;102671.84;2556639;23;20161;-69
2022/03/28 02:56:09;;;;;;;17.98;8.48;;;;;;;7.08;47.29;102665.81;2556755;23;20594;-69
2022/03/28 02:57:10;;;;;;;13.57;8.10;;;;;;;6.97;47.74;102639.97;2569817;23;20547;-69
2022/03/28 02:58:10;;;;;;;11.37;7.67;;;;;;;7.07;47.42;102676.03;2569721;23;20152;-69
2022/03/28 02:59:12;;;;;;;14.03;7.77;;;;;;;7.04;48.30;102674.03;2569679;23;20199;-69
2022/03/28 03:00:13;;;;;;;20.35;8.68;;;;;;;7.13;47.98;102668.31;2569912;23;20152;-69
2022/03/28 03:01:13;;;;;;;19.08;8.65;;;;;;;6.59;47.97;102601.28;2569828;23;20262;-69
2022/03/28 03:02:14;;;;;;;13.33;7.90;;;;;;;6.60;48.30;102600.13;2569433;23;20259;-69
2022/03/28 03:03:14;;;;;;;12.90;8.03;;;;;;;6.38;47.85;102582.31;2556580;23;20149;-69
2022/03/28 03:04:15;;;;;;;13.27;7.83;;;;;;;7.14;47.15;102684.50;2556105;23;20526;-68
2022/03/28 03:05:15;;;;;;;16.87;8.30;;;;;;;7.12;47.11;102672.22;2569568;23;20145;-69
2022/03/28 03:06:16;;;;;;;19.27;7.90;;;;;;;6.97;47.13;102660.06;2569966;23;20225;-68
2022/03/28 03:07:18;;;;;;;11.03;7.60;;;;;;;6.85;47.56;102651.09;2569663;23;20148;-69
2022/03/28 03:08:19;;;;;;;13.82;7.78;;;;;;;6.34;47.68;102570.41;2569655;23;20430;-69
2022/03/28 03:09:20;;;;;;;16.80;8.63;;;;;;;7.07;47.67;102687.06;2569807;23;20171;-69
2022/03/28 03:10:20;;;;;;;18.53;7.93;;;;;;;6.87;47.88;102668.09;2556495;23;20228;-69
2022/03/28 03:11:22;;;;;;;16.50;7.90;;;;;;;6.46;47.87;102602.56;2556458;23;20177;-69
2022/03/28 03:12:23;;;;;;;18.80;7.40;;;;;;;7.02;48.13;102681.06;2569274;23;20156;-69
2022/03/28 03:13:23;;;;;;;15.00;7.63;;;;;;;6.98;47.81;102685.69;2569879;23;20155;-68
2022/03/28 03:14:24;;;;;;;15.97;8.20;;;;;;;6.75;47.82;102657.16;2569235;23;20148;-69
2022/03/28 03:15:25;;;;;;;14.20;7.40;;;;;;;6.84;48.25;102685.34;2569924;23;20179;-68
2022/03/28 03:16:25;;;;;;;17.50;8.93;;;;;;;6.22;48.35;102600.78;2569818;23;20141;-68
2022/03/28 03:17:26;;;;;;;19.53;8.47;;;;;;;6.52;48.90;102654.25;2569792;23;20224;-69
2022/03/28 03:18:27;;;;;;;20.53;8.73;;;;;;;6.82;48.26;102690.41;2569185;23;20172;-69
2022/03/28 03:19:28;;;;;;;22.27;8.63;;;;;;;6.03;47.73;102581.41;2569866;23;20159;-68
2022/03/28 03:20:28;;;;;;;30.27;8.10;;;;;;;6.88;48.13;102700.78;2569644;23;20492;-68
2022/03/28 03:21:29;;;;;;;16.57;8.17;;;;;;;6.10;47.61;102567.03;2569796;23;20558;-69
2022/03/28 03:22:29;;;;;;;13.90;8.17;;;;;;;6.90;47.64;102700.44;2569238;23;20151;-69
2022/03/28 03:23:30;;;;;;;13.50;8.30;;;;;;;6.89;47.38;102705.16;2569272;23;20160;-68
2022/03/28 03:24:31;;;;;;;14.57;8.23;;;;;;;6.22;47.57;102605.47;2569387;23;20175;-69
2022/03/28 03:25:32;;;;;;;15.45;7.82;;;;;;;6.55;47.81;102672.00;2556424;23;20239;-69
2022/03/28 03:26:33;;;;;;;15.47;8.50;;;;;;;6.77;47.89;102693.44;2556605;23;20236;-69
2022/03/28 03:27:38;;;;;;;12.93;8.17;;;;;;;6.29;48.10;102630.44;2569803;23;20501;-68
2022/03/28 03:28:39;;;;;;;12.57;8.13;;;;;;;6.72;48.11;102701.97;2569590;23;20147;-69
2022/03/28 03:29:41;;;;;;;16.83;8.03;;;;;;;6.61;48.04;102676.91;2556545;23;20187;-69
2022/03/28 03:30:41;;;;;;;14.20;7.53;;;;;;;6.79;48.52;102704.91;2556745;23;20157;-69
2022/03/28 03:31:42;;;;;;;13.43;8.20;;;;;;;6.79;48.56;102702.94;2569822;23;20183;-68
2022/03/28 03:32:42;;;;;;;12.47;7.23;;;;;;;6.35;48.43;102635.31;2569144;23;20159;-69
2022/03/28 03:33:43;;;;;;;15.57;7.60;;;;;;;5.91;48.46;102583.44;2569033;23;20190;-69
2022/03/28 03:34:44;;;;;;;14.20;7.67;;;;;;;6.70;48.38;102718.06;2569678;23;20218;-69
2022/03/28 03:35:44;;;;;;;15.73;7.67;;;;;;;6.69;48.76;102713.69;2569942;23;20499;-69
2022/03/28 03:36:45;;;;;;;15.87;8.80;;;;;;;6.71;48.79;102716.91;2569718;23;20174;-69
2022/03/28 03:37:45;;;;;;;15.57;8.20;;;;;;;6.20;48.68;102640.84;2569764;23;20178;-69
2022/03/28 03:38:46;;;;;;;12.37;7.63;;;;;;;6.69;48.59;102716.44;2569696;23;20188;-69
2022/03/28 03:39:46;;;;;;;16.60;8.90;;;;;;;6.75;48.59;102717.78;2569866;23;20156;-69
2022/03/28 03:40:47;;;;;;;17.27;8.07;;;;;;;6.79;48.63;102711.22;2569505;23;20163;-69
2022/03/28 03:41:48;;;;;;;12.17;7.63;;;;;;;6.22;48.00;102633.81;2569557;23;20483;-68
2022/03/28 03:42:48;;;;;;;13.18;7.15;;;;;;;6.72;48.38;102704.72;2569442;23;20156;-69
2022/03/28 03:43:50;;;;;;;16.90;7.40;;;;;;;5.80;48.03;102577.66;2568945;23;20167;-69
2022/03/28 03:44:50;;;;;;;19.70;7.80;;;;;;;6.71;48.81;102717.69;2569526;23;20139;-68
2022/03/28 03:45:51;;;;;;;20.47;8.13;;;;;;;6.70;48.48;102718.84;2569812;23;20150;-68
2022/03/28 03:46:52;;;;;;;18.83;8.60;;;;;;;6.11;48.78;102629.19;2569283;23;20206;-69
2022/03/28 03:47:52;;;;;;;17.40;7.80;;;;;;;6.72;48.79;102735.81;2569699;23;20179;-68
2022/03/28 03:48:53;;;;;;;13.67;7.23;;;;;;;6.59;48.16;102698.50;2569561;23;20160;-69
2022/03/28 03:49:53;;;;;;;13.87;7.37;;;;;;;6.61;48.23;102706.44;2556544;23;20161;-69
2022/03/28 03:50:54;;;;;;;12.80;7.03;;;;;;;6.64;48.07;102716.72;2556463;23;20154;-68
2022/03/28 03:51:55;;;;;;;13.83;8.00;;;;;;;6.80;48.65;102734.84;2569456;23;20477;-69
2022/03/28 03:52:55;;;;;;;11.43;7.10;;;;;;;6.20;48.01;102638.88;2569483;23;20571;-69
2022/03/28 03:53:56;;;;;;;13.00;7.17;;;;;;;6.68;47.73;102734.97;2569205;23;20210;-69
2022/03/28 03:54:57;;;;;;;12.37;7.30;;;;;;;6.89;47.85;102726.41;2569514;23;20148;-69
2022/03/28 03:55:59;;;;;;;19.23;7.37;;;;;;;6.60;47.54;102694.59;2569665;23;20191;-69
2022/03/28 03:57:00;;;;;;;14.23;7.65;;;;;;;6.87;47.18;102717.72;2569457;23;20171;-69
2022/03/28 03:58:00;;;;;;;14.25;7.30;;;;;;;6.77;47.46;102735.56;2569406;23;20155;-69
2022/03/28 03:59:01;;;;;;;16.70;8.03;;;;;;;6.81;47.94;102735.69;2569405;23;20214;-69
2022/03/28 04:00:03;;;;;;;14.33;7.33;;;;;;;6.78;47.57;102739.94;2569678;23;20156;-69
2022/03/28 04:01:04;;;;;;;18.05;7.47;;;;;;;6.45;48.06;102681.63;2569310;23;20547;-69
2022/03/28 04:02:05;;;;;;;17.47;7.80;;;;;;;6.84;48.07;102748.72;2569278;23;20159;-69
2022/03/28 04:03:05;;;;;;;19.17;7.87;;;;;;;6.71;48.23;102717.69;2569535;23;20163;-69
2022/03/28 04:04:06;;;;;;;19.13;7.17;;;;;;;6.84;47.86;102738.50;2569161;23;20375;-69
2022/03/28 04:05:07;;;;;;;16.10;7.63;;;;;;;6.85;47.90;102739.28;2569373;23;20543;-69
2022/03/28 04:06:10;;;;;;;22.83;8.90;;;;;;;6.20;47.84;102652.63;2556436;23;20163;-68
2022/03/28 04:07:11;;;;;;;17.58;7.53;;;;;;;6.01;47.69;102629.72;2556892;23;20153;-69
2022/03/28 04:08:11;;;;;;;26.70;8.63;;;;;;;6.16;47.41;102675.72;2569391;23;20155;-69
2022/03/28 04:09:12;;;;;;;17.50;8.30;;;;;;;6.64;47.70;102739.56;2569457;23;20520;-68
2022/03/28 04:10:12;;;;;;;14.63;7.70;;;;;;;6.62;47.60;102738.31;2570170;23;20236;-69
2022/03/28 04:11:13;;;;;;;12.03;7.80;;;;;;;6.48;48.11;102748.97;2569375;23;20202;-68
2022/03/28 04:12:14;;;;;;;19.17;8.17;;;;;;;6.14;48.52;102703.59;2569187;23;20162;-69
2022/03/28 04:13:15;;;;;;;14.20;7.13;;;;;;;6.33;48.46;102747.81;2567807;23;20163;-69
2022/03/28 04:14:15;;;;;;;14.50;7.33;;;;;;;5.60;48.56;102643.88;2567216;23;20152;-69
2022/03/28 04:15:16;;;;;;;13.13;7.43;;;;;;;5.96;48.61;102707.03;2568374;23;20548;-68
2022/03/28 04:16:17;;;;;;;20.03;7.93;;;;;;;6.26;48.75;102749.56;2569593;23;20232;-69
2022/03/28 04:17:17;;;;;;;14.13;7.47;;;;;;;6.04;48.75;102723.38;2569550;23;20614;-69
2022/03/28 04:18:18;;;;;;;15.23;7.83;;;;;;;6.34;48.84;102752.16;2569188;23;20234;-69
2022/03/28 04:19:18;;;;;;;15.17;8.17;;;;;;;6.18;49.53;102736.75;2569383;23;20205;-69
2022/03/28 04:20:20;;;;;;;22.73;8.83;;;;;;;6.43;49.81;102744.53;2556269;23;20175;-69
2022/03/28 04:21:20;;;;;;;28.20;10.45;;;;;;;5.71;49.30;102644.97;2556359;23;20159;-69
2022/03/28 04:22:21;;;;;;;22.77;8.80;;;;;;;6.22;48.84;102719.19;2569049;23;20155;-69
2022/03/28 04:23:23;;;;;;;15.77;8.60;;;;;;;6.12;49.29;102705.13;2569371;23;20210;-68
2022/03/28 04:24:24;;;;;;;15.10;8.00;;;;;;;6.06;48.63;102696.28;2554824;23;20210;-68
2022/03/28 04:25:25;;;;;;;21.90;8.87;;;;;;;6.41;49.18;102755.09;2555523;23;20146;-69
2022/03/28 04:26:25;;;;;;;31.17;10.67;;;;;;;6.41;49.14;102763.34;2554299;23;20196;-69
2022/03/28 04:27:26;;;;;;;26.30;10.40;;;;;;;6.44;48.75;102756.34;2556452;23;20232;-69
2022/03/28 04:28:26;;;;;;;20.07;10.57;;;;;;;6.46;49.07;102751.28;2568755;23;20152;-69
2022/03/28 04:29:28;;;;;;;21.10;9.80;;;;;;;6.44;48.33;102759.09;2569409;23;20160;-69
2022/03/28 04:30:29;;;;;;;17.15;8.60;;;;;;;6.38;47.98;102758.56;2569014;23;20234;-72
2022/03/28 04:31:29;;;;;;;25.70;9.63;;;;;;;6.30;48.24;102753.22;2569340;23;20202;-69
2022/03/28 04:32:30;;;;;;;35.97;14.50;;;;;;;6.23;49.15;102762.06;2555657;23;20166;-69
2022/03/28 04:33:31;;;;;;;44.50;13.60;;;;;;;6.09;49.05;102741.59;2555595;23;20151;-69
2022/03/28 04:34:31;;;;;;;33.40;12.77;;;;;;;6.07;48.95;102752.16;2555299;23;20160;-69
2022/03/28 04:35:32;;;;;;;26.47;10.80;;;;;;;6.19;48.84;102757.59;2555314;23;20152;-69
2022/03/28 04:36:33;;;;;;;32.57;11.90;;;;;;;6.05;48.56;102732.47;2569188;23;20166;-69
2022/03/28 04:37:36;;;;;;;33.10;13.00;;;;;;;5.68;48.34;102689.66;2569192;23;20151;-69
2022/03/28 04:38:37;;;;;;;25.42;12.00;;;;;;;6.18;48.29;102756.00;2569234;23;20378;-69
2022/03/28 04:39:37;;;;;;;21.70;11.82;;;;;;;6.12;48.38;102744.47;2569236;23;20264;-70
2022/03/28 04:40:38;;;;;;;24.10;10.20;;;;;;;6.14;48.13;102761.41;2568967;23;20155;-70
2022/03/28 04:41:38;;;;;;;22.00;11.13;;;;;;;6.10;48.32;102759.72;2569064;23;20238;-70
2022/03/28 04:42:39;;;;;;;25.87;11.80;;;;;;;5.33;49.19;102653.69;2568688;23;20159;-69
2022/03/28 04:43:40;;;;;;;33.93;14.50;;;;;;;5.47;49.56;102681.63;2568058;23;20669;-70
2022/03/28 04:44:41;;;;;;;33.40;13.70;;;;;;;6.05;49.68;102763.53;2568100;23;20148;-69